sensor_id;sensor_type;location;lat;lon;timestamp;P1;durP1;ratioP1;P2;durP2;ratioP2
12567;SDS011;6349;50.904;6.136;2023-03-23T00:02:01;2.23;;;2.03;;
12567;SDS011;6349;50.904;6.136;2023-03-23T00:04:03;2.77;;;2.23;;
12567;SDS011;6349;50.904;6.136;2023-03-23T00:06:04;2.47;;;2.10;;
12567;SDS011;6349;50.904;6.136;2023-03-23T00:08:06;2.53;;;2.03;;
12567;SDS011;6349;50.904;6.136;2023-03-23T00:10:08;3.17;;;2.23;;
12567;SDS011;6349;50.904;6.136;2023-03-23T00:12:10;3.07;;;1.80;;
12567;SDS011;6349;50.904;6.136;2023-03-23T00:14:15;2.30;;;1.93;;
12567;SDS011;6349;50.904;6.136;2023-03-23T00:16:19;2.60;;;1.87;;
12567;SDS011;6349;50.904;6.136;2023-03-23T00:18:30;2.00;;;1.80;;
12567;SDS011;6349;50.904;6.136;2023-03-23T00:20:31;2.83;;;1.97;;
12567;SDS011;6349;50.904;6.136;2023-03-23T00:22:41;2.07;;;1.70;;
12567;SDS011;6349;50.904;6.136;2023-03-23T00:24:42;3.60;;;2.07;;
12567;SDS011;6349;50.904;6.136;2023-03-23T00:26:45;2.27;;;1.70;;
12567;SDS011;6349;50.904;6.136;2023-03-23T00:28:47;2.23;;;1.90;;
12567;SDS011;6349;50.904;6.136;2023-03-23T00:30:47;2.57;;;2.03;;
12567;SDS011;6349;50.904;6.136;2023-03-23T00:32:48;2.13;;;1.97;;
12567;SDS011;6349;50.904;6.136;2023-03-23T00:34:50;3.27;;;2.20;;
12567;SDS011;6349;50.904;6.136;2023-03-23T00:36:52;1.90;;;1.70;;
12567;SDS011;6349;50.904;6.136;2023-03-23T00:38:56;2.90;;;2.30;;
12567;SDS011;6349;50.904;6.136;2023-03-23T00:41:00;2.10;;;1.90;;
12567;SDS011;6349;50.904;6.136;2023-03-23T00:43:04;2.23;;;2.03;;
12567;SDS011;6349;50.904;6.136;2023-03-23T00:45:05;2.27;;;1.90;;
12567;SDS011;6349;50.904;6.136;2023-03-23T00:47:11;2.37;;;2.03;;
12567;SDS011;6349;50.904;6.136;2023-03-23T00:49:16;2.23;;;2.03;;
12567;SDS011;6349;50.904;6.136;2023-03-23T00:51:18;2.83;;;2.17;;
12567;SDS011;6349;50.904;6.136;2023-03-23T00:53:20;3.20;;;2.10;;
12567;SDS011;6349;50.904;6.136;2023-03-23T00:55:21;2.47;;;1.87;;
12567;SDS011;6349;50.904;6.136;2023-03-23T00:57:23;2.73;;;2.00;;
12567;SDS011;6349;50.904;6.136;2023-03-23T00:59:25;4.20;;;2.00;;
12567;SDS011;6349;50.904;6.136;2023-03-23T01:01:27;3.87;;;2.23;;
12567;SDS011;6349;50.904;6.136;2023-03-23T01:03:30;2.20;;;2.00;;
12567;SDS011;6349;50.904;6.136;2023-03-23T01:05:36;3.07;;;2.37;;
12567;SDS011;6349;50.904;6.136;2023-03-23T01:07:38;2.40;;;2.20;;
12567;SDS011;6349;50.904;6.136;2023-03-23T01:09:39;2.10;;;1.87;;
12567;SDS011;6349;50.904;6.136;2023-03-23T01:11:41;2.50;;;2.13;;
12567;SDS011;6349;50.904;6.136;2023-03-23T01:13:43;2.67;;;2.20;;
12567;SDS011;6349;50.904;6.136;2023-03-23T01:15:44;2.43;;;2.10;;
12567;SDS011;6349;50.904;6.136;2023-03-23T01:17:47;3.57;;;2.23;;
12567;SDS011;6349;50.904;6.136;2023-03-23T01:19:49;2.17;;;1.97;;
12567;SDS011;6349;50.904;6.136;2023-03-23T01:21:50;4.30;;;2.30;;
12567;SDS011;6349;50.904;6.136;2023-03-23T01:23:52;2.53;;;2.20;;
12567;SDS011;6349;50.904;6.136;2023-03-23T01:25:53;3.87;;;2.33;;
12567;SDS011;6349;50.904;6.136;2023-03-23T01:27:57;3.00;;;2.20;;
12567;SDS011;6349;50.904;6.136;2023-03-23T01:29:59;2.57;;;2.37;;
12567;SDS011;6349;50.904;6.136;2023-03-23T01:32:00;2.37;;;2.17;;
12567;SDS011;6349;50.904;6.136;2023-03-23T01:34:02;2.30;;;2.10;;
12567;SDS011;6349;50.904;6.136;2023-03-23T01:36:04;2.50;;;2.30;;
12567;SDS011;6349;50.904;6.136;2023-03-23T01:38:08;2.70;;;2.30;;
12567;SDS011;6349;50.904;6.136;2023-03-23T01:40:09;2.77;;;1.97;;
12567;SDS011;6349;50.904;6.136;2023-03-23T01:42:11;2.03;;;1.83;;
12567;SDS011;6349;50.904;6.136;2023-03-23T01:46:25;1.90;;;1.80;;
12567;SDS011;6349;50.904;6.136;2023-03-23T01:48:27;2.20;;;2.00;;
12567;SDS011;6349;50.904;6.136;2023-03-23T01:50:35;1.83;;;1.63;;
12567;SDS011;6349;50.904;6.136;2023-03-23T01:52:42;2.10;;;1.67;;
12567;SDS011;6349;50.904;6.136;2023-03-23T01:54:43;1.87;;;1.77;;
12567;SDS011;6349;50.904;6.136;2023-03-23T01:56:48;2.03;;;1.70;;
12567;SDS011;6349;50.904;6.136;2023-03-23T01:58:53;1.83;;;1.60;;
12567;SDS011;6349;50.904;6.136;2023-03-23T02:00:57;1.90;;;1.70;;
12567;SDS011;6349;50.904;6.136;2023-03-23T02:03:01;1.80;;;1.70;;
12567;SDS011;6349;50.904;6.136;2023-03-23T02:05:02;2.23;;;1.70;;
12567;SDS011;6349;50.904;6.136;2023-03-23T02:07:09;1.70;;;1.60;;
12567;SDS011;6349;50.904;6.136;2023-03-23T02:09:13;2.57;;;1.60;;
12567;SDS011;6349;50.904;6.136;2023-03-23T02:11:18;2.27;;;1.70;;
12567;SDS011;6349;50.904;6.136;2023-03-23T02:13:21;1.60;;;1.50;;
12567;SDS011;6349;50.904;6.136;2023-03-23T02:15:24;1.50;;;1.40;;
12567;SDS011;6349;50.904;6.136;2023-03-23T02:17:31;2.00;;;1.80;;
12567;SDS011;6349;50.904;6.136;2023-03-23T02:22:29;1.53;;;1.43;;
12567;SDS011;6349;50.904;6.136;2023-03-23T02:30:11;1.60;;;1.50;;
12567;SDS011;6349;50.904;6.136;2023-03-23T02:34:55;1.60;;;1.50;;
12567;SDS011;6349;50.904;6.136;2023-03-23T02:37:02;2.30;;;1.63;;
12567;SDS011;6349;50.904;6.136;2023-03-23T02:39:09;1.73;;;1.60;;
12567;SDS011;6349;50.904;6.136;2023-03-23T02:41:13;2.47;;;2.03;;
12567;SDS011;6349;50.904;6.136;2023-03-23T02:43:18;1.87;;;1.70;;
12567;SDS011;6349;50.904;6.136;2023-03-23T02:45:22;2.00;;;1.70;;
12567;SDS011;6349;50.904;6.136;2023-03-23T02:47:27;2.03;;;1.70;;
12567;SDS011;6349;50.904;6.136;2023-03-23T02:49:31;2.23;;;1.53;;
12567;SDS011;6349;50.904;6.136;2023-03-23T02:51:36;1.77;;;1.67;;
12567;SDS011;6349;50.904;6.136;2023-03-23T02:53:39;2.10;;;1.90;;
12567;SDS011;6349;50.904;6.136;2023-03-23T02:55:43;1.63;;;1.53;;
12567;SDS011;6349;50.904;6.136;2023-03-23T02:57:47;2.20;;;1.70;;
12567;SDS011;6349;50.904;6.136;2023-03-23T02:59:50;2.00;;;1.80;;
12567;SDS011;6349;50.904;6.136;2023-03-23T03:01:55;2.50;;;2.03;;
12567;SDS011;6349;50.904;6.136;2023-03-23T03:04:01;2.80;;;1.70;;
12567;SDS011;6349;50.904;6.136;2023-03-23T03:06:10;2.47;;;1.73;;
12567;SDS011;6349;50.904;6.136;2023-03-23T03:10:48;2.13;;;1.63;;
12567;SDS011;6349;50.904;6.136;2023-03-23T03:13:03;1.70;;;1.60;;
12567;SDS011;6349;50.904;6.136;2023-03-23T03:15:26;2.50;;;1.80;;
12567;SDS011;6349;50.904;6.136;2023-03-23T03:17:35;2.30;;;2.10;;
12567;SDS011;6349;50.904;6.136;2023-03-23T03:19:44;2.30;;;2.00;;
12567;SDS011;6349;50.904;6.136;2023-03-23T03:21:48;1.80;;;1.70;;
12567;SDS011;6349;50.904;6.136;2023-03-23T03:23:50;1.87;;;1.77;;
12567;SDS011;6349;50.904;6.136;2023-03-23T03:25:54;2.80;;;1.90;;
12567;SDS011;6349;50.904;6.136;2023-03-23T03:27:58;1.90;;;1.80;;
12567;SDS011;6349;50.904;6.136;2023-03-23T03:29:59;2.20;;;2.00;;
12567;SDS011;6349;50.904;6.136;2023-03-23T03:32:04;2.20;;;2.00;;
12567;SDS011;6349;50.904;6.136;2023-03-23T03:34:10;2.23;;;1.90;;
12567;SDS011;6349;50.904;6.136;2023-03-23T03:36:15;3.07;;;1.70;;
12567;SDS011;6349;50.904;6.136;2023-03-23T03:38:19;1.93;;;1.80;;
12567;SDS011;6349;50.904;6.136;2023-03-23T03:40:20;2.37;;;1.83;;
12567;SDS011;6349;50.904;6.136;2023-03-23T03:42:22;2.10;;;1.67;;
12567;SDS011;6349;50.904;6.136;2023-03-23T03:44:23;1.80;;;1.70;;
12567;SDS011;6349;50.904;6.136;2023-03-23T03:46:25;2.00;;;1.80;;
12567;SDS011;6349;50.904;6.136;2023-03-23T03:48:29;1.93;;;1.80;;
12567;SDS011;6349;50.904;6.136;2023-03-23T03:50:30;1.80;;;1.70;;
12567;SDS011;6349;50.904;6.136;2023-03-23T03:52:33;2.07;;;1.83;;
12567;SDS011;6349;50.904;6.136;2023-03-23T03:54:35;2.63;;;1.97;;
12567;SDS011;6349;50.904;6.136;2023-03-23T03:56:36;2.23;;;2.03;;
12567;SDS011;6349;50.904;6.136;2023-03-23T03:58:40;2.03;;;1.87;;
12567;SDS011;6349;50.904;6.136;2023-03-23T04:00:42;2.00;;;1.90;;
12567;SDS011;6349;50.904;6.136;2023-03-23T04:02:49;2.30;;;2.10;;
12567;SDS011;6349;50.904;6.136;2023-03-23T04:04:54;2.67;;;2.17;;
12567;SDS011;6349;50.904;6.136;2023-03-23T04:06:55;2.07;;;1.87;;
12567;SDS011;6349;50.904;6.136;2023-03-23T04:08:57;2.53;;;2.30;;
12567;SDS011;6349;50.904;6.136;2023-03-23T04:11:00;2.00;;;1.90;;
12567;SDS011;6349;50.904;6.136;2023-03-23T04:13:02;2.20;;;2.00;;
12567;SDS011;6349;50.904;6.136;2023-03-23T04:15:05;2.50;;;2.17;;
12567;SDS011;6349;50.904;6.136;2023-03-23T04:17:08;2.17;;;1.97;;
12567;SDS011;6349;50.904;6.136;2023-03-23T04:19:11;2.00;;;1.90;;
12567;SDS011;6349;50.904;6.136;2023-03-23T04:21:12;2.10;;;1.90;;
12567;SDS011;6349;50.904;6.136;2023-03-23T04:23:16;2.30;;;2.10;;
12567;SDS011;6349;50.904;6.136;2023-03-23T04:25:23;2.27;;;1.70;;
12567;SDS011;6349;50.904;6.136;2023-03-23T04:27:24;2.40;;;2.20;;
12567;SDS011;6349;50.904;6.136;2023-03-23T04:29:28;2.10;;;1.90;;
12567;SDS011;6349;50.904;6.136;2023-03-23T04:31:30;2.00;;;1.90;;
12567;SDS011;6349;50.904;6.136;2023-03-23T04:33:30;2.17;;;2.00;;
12567;SDS011;6349;50.904;6.136;2023-03-23T04:35:31;2.10;;;1.70;;
12567;SDS011;6349;50.904;6.136;2023-03-23T04:37:32;2.47;;;2.00;;
12567;SDS011;6349;50.904;6.136;2023-03-23T04:39:34;2.40;;;2.10;;
12567;SDS011;6349;50.904;6.136;2023-03-23T04:41:36;3.17;;;2.00;;
12567;SDS011;6349;50.904;6.136;2023-03-23T04:43:37;2.40;;;2.20;;
12567;SDS011;6349;50.904;6.136;2023-03-23T04:45:41;2.57;;;2.07;;
12567;SDS011;6349;50.904;6.136;2023-03-23T04:47:48;2.13;;;1.93;;
12567;SDS011;6349;50.904;6.136;2023-03-23T04:50:06;2.87;;;2.20;;
12567;SDS011;6349;50.904;6.136;2023-03-23T04:52:09;2.40;;;2.20;;
12567;SDS011;6349;50.904;6.136;2023-03-23T04:54:09;2.03;;;1.87;;
12567;SDS011;6349;50.904;6.136;2023-03-23T04:56:11;2.27;;;1.90;;
12567;SDS011;6349;50.904;6.136;2023-03-23T04:58:15;2.80;;;2.20;;
12567;SDS011;6349;50.904;6.136;2023-03-23T05:00:17;3.33;;;2.17;;
12567;SDS011;6349;50.904;6.136;2023-03-23T05:02:18;2.10;;;1.90;;
12567;SDS011;6349;50.904;6.136;2023-03-23T05:04:20;2.87;;;1.87;;
12567;SDS011;6349;50.904;6.136;2023-03-23T05:06:22;2.60;;;2.00;;
12567;SDS011;6349;50.904;6.136;2023-03-23T05:08:23;2.33;;;2.13;;
12567;SDS011;6349;50.904;6.136;2023-03-23T05:10:24;2.10;;;1.90;;
12567;SDS011;6349;50.904;6.136;2023-03-23T05:12:26;4.00;;;2.10;;
12567;SDS011;6349;50.904;6.136;2023-03-23T05:14:27;3.27;;;1.87;;
12567;SDS011;6349;50.904;6.136;2023-03-23T05:16:28;1.70;;;1.60;;
12567;SDS011;6349;50.904;6.136;2023-03-23T05:18:31;2.53;;;1.83;;
12567;SDS011;6349;50.904;6.136;2023-03-23T05:20:33;2.93;;;2.10;;
12567;SDS011;6349;50.904;6.136;2023-03-23T05:22:35;2.33;;;1.80;;
12567;SDS011;6349;50.904;6.136;2023-03-23T05:24:37;2.83;;;1.93;;
12567;SDS011;6349;50.904;6.136;2023-03-23T05:26:38;2.30;;;1.93;;
12567;SDS011;6349;50.904;6.136;2023-03-23T05:28:40;2.57;;;2.17;;
12567;SDS011;6349;50.904;6.136;2023-03-23T05:30:41;1.97;;;1.80;;
12567;SDS011;6349;50.904;6.136;2023-03-23T05:32:44;1.87;;;1.60;;
12567;SDS011;6349;50.904;6.136;2023-03-23T05:34:45;2.37;;;2.00;;
12567;SDS011;6349;50.904;6.136;2023-03-23T05:36:46;3.63;;;1.80;;
12567;SDS011;6349;50.904;6.136;2023-03-23T05:38:47;2.17;;;1.77;;
12567;SDS011;6349;50.904;6.136;2023-03-23T05:40:50;2.83;;;1.97;;
12567;SDS011;6349;50.904;6.136;2023-03-23T05:42:53;3.27;;;1.83;;
12567;SDS011;6349;50.904;6.136;2023-03-23T05:44:55;2.10;;;1.60;;
12567;SDS011;6349;50.904;6.136;2023-03-23T05:46:57;2.80;;;1.90;;
12567;SDS011;6349;50.904;6.136;2023-03-23T05:48:58;2.17;;;1.97;;
12567;SDS011;6349;50.904;6.136;2023-03-23T05:51:00;3.07;;;1.80;;
12567;SDS011;6349;50.904;6.136;2023-03-23T05:53:01;2.50;;;1.97;;
12567;SDS011;6349;50.904;6.136;2023-03-23T05:55:04;2.10;;;1.50;;
12567;SDS011;6349;50.904;6.136;2023-03-23T05:57:08;2.10;;;1.63;;
12567;SDS011;6349;50.904;6.136;2023-03-23T05:59:11;2.27;;;1.60;;
12567;SDS011;6349;50.904;6.136;2023-03-23T06:01:12;2.83;;;1.80;;
12567;SDS011;6349;50.904;6.136;2023-03-23T06:03:15;1.83;;;1.60;;
12567;SDS011;6349;50.904;6.136;2023-03-23T06:05:16;1.83;;;1.53;;
12567;SDS011;6349;50.904;6.136;2023-03-23T06:07:17;2.33;;;1.70;;
12567;SDS011;6349;50.904;6.136;2023-03-23T06:09:18;2.43;;;1.67;;
12567;SDS011;6349;50.904;6.136;2023-03-23T06:11:20;2.87;;;1.73;;
12567;SDS011;6349;50.904;6.136;2023-03-23T06:13:21;2.20;;;1.43;;
12567;SDS011;6349;50.904;6.136;2023-03-23T06:15:23;2.17;;;1.50;;
12567;SDS011;6349;50.904;6.136;2023-03-23T06:17:25;3.87;;;1.80;;
12567;SDS011;6349;50.904;6.136;2023-03-23T06:19:27;2.83;;;1.53;;
12567;SDS011;6349;50.904;6.136;2023-03-23T06:21:28;2.53;;;1.70;;
12567;SDS011;6349;50.904;6.136;2023-03-23T06:23:29;2.57;;;1.60;;
12567;SDS011;6349;50.904;6.136;2023-03-23T06:25:31;2.70;;;1.73;;
12567;SDS011;6349;50.904;6.136;2023-03-23T06:27:33;3.00;;;1.60;;
12567;SDS011;6349;50.904;6.136;2023-03-23T06:29:35;3.67;;;1.57;;
12567;SDS011;6349;50.904;6.136;2023-03-23T06:31:37;2.67;;;1.73;;
12567;SDS011;6349;50.904;6.136;2023-03-23T06:33:40;3.30;;;1.63;;
12567;SDS011;6349;50.904;6.136;2023-03-23T06:35:40;2.37;;;1.53;;
12567;SDS011;6349;50.904;6.136;2023-03-23T06:37:44;2.83;;;1.33;;
12567;SDS011;6349;50.904;6.136;2023-03-23T06:39:46;2.63;;;1.70;;
12567;SDS011;6349;50.904;6.136;2023-03-23T06:41:48;2.23;;;1.57;;
12567;SDS011;6349;50.904;6.136;2023-03-23T06:43:51;2.53;;;1.50;;
12567;SDS011;6349;50.904;6.136;2023-03-23T06:45:52;2.70;;;1.60;;
12567;SDS011;6349;50.904;6.136;2023-03-23T06:47:54;1.97;;;1.37;;
12567;SDS011;6349;50.904;6.136;2023-03-23T06:49:55;1.60;;;1.30;;
12567;SDS011;6349;50.904;6.136;2023-03-23T06:51:57;2.63;;;1.70;;
12567;SDS011;6349;50.904;6.136;2023-03-23T06:54:01;1.93;;;1.43;;
12567;SDS011;6349;50.904;6.136;2023-03-23T06:56:02;2.17;;;1.60;;
12567;SDS011;6349;50.904;6.136;2023-03-23T06:58:05;2.33;;;1.60;;
12567;SDS011;6349;50.904;6.136;2023-03-23T07:00:07;1.70;;;1.50;;
12567;SDS011;6349;50.904;6.136;2023-03-23T07:02:13;1.93;;;1.37;;
12567;SDS011;6349;50.904;6.136;2023-03-23T07:04:15;2.90;;;1.40;;
12567;SDS011;6349;50.904;6.136;2023-03-23T07:06:19;2.00;;;1.80;;
12567;SDS011;6349;50.904;6.136;2023-03-23T07:08:20;3.60;;;1.60;;
12567;SDS011;6349;50.904;6.136;2023-03-23T07:10:22;2.30;;;1.53;;
12567;SDS011;6349;50.904;6.136;2023-03-23T07:12:24;1.73;;;1.40;;
12567;SDS011;6349;50.904;6.136;2023-03-23T07:14:26;1.90;;;1.37;;
12567;SDS011;6349;50.904;6.136;2023-03-23T07:16:28;3.00;;;1.50;;
12567;SDS011;6349;50.904;6.136;2023-03-23T07:18:29;3.10;;;1.40;;
12567;SDS011;6349;50.904;6.136;2023-03-23T07:20:31;3.03;;;1.40;;
12567;SDS011;6349;50.904;6.136;2023-03-23T07:22:33;1.70;;;1.20;;
12567;SDS011;6349;50.904;6.136;2023-03-23T07:24:36;2.93;;;1.50;;
12567;SDS011;6349;50.904;6.136;2023-03-23T07:26:37;1.50;;;1.40;;
12567;SDS011;6349;50.904;6.136;2023-03-23T07:28:39;1.73;;;1.17;;
12567;SDS011;6349;50.904;6.136;2023-03-23T07:30:43;2.37;;;1.43;;
12567;SDS011;6349;50.904;6.136;2023-03-23T07:32:44;2.13;;;1.40;;
12567;SDS011;6349;50.904;6.136;2023-03-23T07:34:45;1.63;;;1.30;;
12567;SDS011;6349;50.904;6.136;2023-03-23T07:36:48;2.43;;;1.30;;
12567;SDS011;6349;50.904;6.136;2023-03-23T07:38:50;1.97;;;1.33;;
12567;SDS011;6349;50.904;6.136;2023-03-23T07:40:51;3.73;;;1.53;;
12567;SDS011;6349;50.904;6.136;2023-03-23T07:42:54;2.23;;;1.33;;
12567;SDS011;6349;50.904;6.136;2023-03-23T07:44:58;2.63;;;1.20;;
12567;SDS011;6349;50.904;6.136;2023-03-23T07:46:59;2.27;;;1.40;;
12567;SDS011;6349;50.904;6.136;2023-03-23T07:49:02;3.17;;;1.47;;
12567;SDS011;6349;50.904;6.136;2023-03-23T07:51:06;2.00;;;1.53;;
12567;SDS011;6349;50.904;6.136;2023-03-23T07:53:07;3.83;;;1.60;;
12567;SDS011;6349;50.904;6.136;2023-03-23T07:55:10;4.50;;;1.53;;
12567;SDS011;6349;50.904;6.136;2023-03-23T07:57:18;2.87;;;1.53;;
12567;SDS011;6349;50.904;6.136;2023-03-23T07:59:19;2.27;;;1.40;;
12567;SDS011;6349;50.904;6.136;2023-03-23T08:01:21;2.60;;;1.33;;
12567;SDS011;6349;50.904;6.136;2023-03-23T08:03:24;3.10;;;1.50;;
12567;SDS011;6349;50.904;6.136;2023-03-23T08:05:27;3.27;;;1.40;;
12567;SDS011;6349;50.904;6.136;2023-03-23T08:07:29;3.47;;;1.40;;
12567;SDS011;6349;50.904;6.136;2023-03-23T08:09:31;3.70;;;1.43;;
12567;SDS011;6349;50.904;6.136;2023-03-23T08:11:33;2.80;;;1.47;;
12567;SDS011;6349;50.904;6.136;2023-03-23T08:13:36;2.40;;;1.40;;
12567;SDS011;6349;50.904;6.136;2023-03-23T08:15:37;2.60;;;1.40;;
12567;SDS011;6349;50.904;6.136;2023-03-23T08:17:39;3.03;;;1.33;;
12567;SDS011;6349;50.904;6.136;2023-03-23T08:19:42;4.27;;;1.60;;
12567;SDS011;6349;50.904;6.136;2023-03-23T08:21:47;3.40;;;1.47;;
12567;SDS011;6349;50.904;6.136;2023-03-23T08:23:50;4.00;;;1.43;;
12567;SDS011;6349;50.904;6.136;2023-03-23T08:25:52;3.23;;;1.67;;
12567;SDS011;6349;50.904;6.136;2023-03-23T08:27:54;3.93;;;1.63;;
12567;SDS011;6349;50.904;6.136;2023-03-23T08:30:03;3.63;;;1.60;;
12567;SDS011;6349;50.904;6.136;2023-03-23T08:32:06;3.47;;;1.50;;
12567;SDS011;6349;50.904;6.136;2023-03-23T08:34:08;3.07;;;1.50;;
12567;SDS011;6349;50.904;6.136;2023-03-23T08:36:10;2.13;;;1.13;;
12567;SDS011;6349;50.904;6.136;2023-03-23T08:38:12;3.70;;;1.40;;
12567;SDS011;6349;50.904;6.136;2023-03-23T08:40:15;2.93;;;1.43;;
12567;SDS011;6349;50.904;6.136;2023-03-23T08:42:20;2.73;;;1.30;;
12567;SDS011;6349;50.904;6.136;2023-03-23T08:44:22;3.23;;;1.67;;
12567;SDS011;6349;50.904;6.136;2023-03-23T08:46:24;4.00;;;1.60;;
12567;SDS011;6349;50.904;6.136;2023-03-23T08:48:26;3.00;;;1.47;;
12567;SDS011;6349;50.904;6.136;2023-03-23T08:50:28;4.60;;;1.57;;
12567;SDS011;6349;50.904;6.136;2023-03-23T08:52:30;4.27;;;1.40;;
12567;SDS011;6349;50.904;6.136;2023-03-23T08:54:32;4.67;;;1.40;;
12567;SDS011;6349;50.904;6.136;2023-03-23T08:56:34;2.80;;;1.60;;
12567;SDS011;6349;50.904;6.136;2023-03-23T08:58:36;3.90;;;1.60;;
12567;SDS011;6349;50.904;6.136;2023-03-23T09:00:38;4.00;;;1.50;;
12567;SDS011;6349;50.904;6.136;2023-03-23T09:02:41;3.43;;;1.43;;
12567;SDS011;6349;50.904;6.136;2023-03-23T09:04:43;3.37;;;1.50;;
12567;SDS011;6349;50.904;6.136;2023-03-23T09:06:44;2.63;;;1.37;;
12567;SDS011;6349;50.904;6.136;2023-03-23T09:08:46;5.53;;;1.50;;
12567;SDS011;6349;50.904;6.136;2023-03-23T09:10:47;3.27;;;1.50;;
12567;SDS011;6349;50.904;6.136;2023-03-23T09:12:51;1.83;;;1.30;;
12567;SDS011;6349;50.904;6.136;2023-03-23T09:14:53;3.20;;;1.50;;
12567;SDS011;6349;50.904;6.136;2023-03-23T09:16:55;3.40;;;1.37;;
12567;SDS011;6349;50.904;6.136;2023-03-23T09:18:56;2.77;;;1.60;;
12567;SDS011;6349;50.904;6.136;2023-03-23T09:20:59;3.83;;;1.57;;
12567;SDS011;6349;50.904;6.136;2023-03-23T09:23:01;2.00;;;1.33;;
12567;SDS011;6349;50.904;6.136;2023-03-23T09:25:02;3.20;;;1.50;;
12567;SDS011;6349;50.904;6.136;2023-03-23T09:27:04;2.50;;;1.50;;
12567;SDS011;6349;50.904;6.136;2023-03-23T09:29:06;1.97;;;1.30;;
12567;SDS011;6349;50.904;6.136;2023-03-23T09:31:07;3.87;;;1.20;;
12567;SDS011;6349;50.904;6.136;2023-03-23T09:33:09;2.37;;;1.33;;
12567;SDS011;6349;50.904;6.136;2023-03-23T09:35:11;2.77;;;1.40;;
12567;SDS011;6349;50.904;6.136;2023-03-23T09:37:13;3.20;;;1.30;;
12567;SDS011;6349;50.904;6.136;2023-03-23T09:39:15;2.80;;;1.30;;
12567;SDS011;6349;50.904;6.136;2023-03-23T09:41:28;2.40;;;1.20;;
12567;SDS011;6349;50.904;6.136;2023-03-23T09:44:22;3.77;;;1.20;;
12567;SDS011;6349;50.904;6.136;2023-03-23T09:46:33;1.77;;;1.30;;
12567;SDS011;6349;50.904;6.136;2023-03-23T09:50:58;2.60;;;1.10;;
12567;SDS011;6349;50.904;6.136;2023-03-23T09:53:07;2.20;;;1.20;;
12567;SDS011;6349;50.904;6.136;2023-03-23T09:55:29;3.60;;;1.50;;
12567;SDS011;6349;50.904;6.136;2023-03-23T09:57:33;1.30;;;1.10;;
12567;SDS011;6349;50.904;6.136;2023-03-23T09:59:44;1.90;;;1.30;;
12567;SDS011;6349;50.904;6.136;2023-03-23T10:02:15;3.20;;;1.23;;
12567;SDS011;6349;50.904;6.136;2023-03-23T10:04:46;2.23;;;1.10;;
12567;SDS011;6349;50.904;6.136;2023-03-23T10:06:50;2.43;;;1.23;;
12567;SDS011;6349;50.904;6.136;2023-03-23T10:08:52;1.90;;;1.10;;
12567;SDS011;6349;50.904;6.136;2023-03-23T10:11:03;2.67;;;1.10;;
12567;SDS011;6349;50.904;6.136;2023-03-23T10:13:32;2.93;;;1.43;;
12567;SDS011;6349;50.904;6.136;2023-03-23T10:15:57;1.17;;;1.00;;
12567;SDS011;6349;50.904;6.136;2023-03-23T10:17:59;2.50;;;1.00;;
12567;SDS011;6349;50.904;6.136;2023-03-23T10:20:43;0.80;;;0.80;;
12567;SDS011;6349;50.904;6.136;2023-03-23T10:22:32;1.37;;;1.10;;
12567;SDS011;6349;50.904;6.136;2023-03-23T10:24:43;1.30;;;1.03;;
12567;SDS011;6349;50.904;6.136;2023-03-23T10:29:40;1.43;;;1.10;;
12567;SDS011;6349;50.904;6.136;2023-03-23T10:31:53;1.83;;;0.93;;
12567;SDS011;6349;50.904;6.136;2023-03-23T10:34:05;2.43;;;1.37;;
12567;SDS011;6349;50.904;6.136;2023-03-23T10:36:16;1.23;;;0.83;;
12567;SDS011;6349;50.904;6.136;2023-03-23T10:38:24;0.90;;;0.80;;
12567;SDS011;6349;50.904;6.136;2023-03-23T10:40:30;1.63;;;1.10;;
12567;SDS011;6349;50.904;6.136;2023-03-23T10:42:34;1.73;;;1.13;;
12567;SDS011;6349;50.904;6.136;2023-03-23T10:44:40;2.27;;;1.20;;
12567;SDS011;6349;50.904;6.136;2023-03-23T10:46:46;2.87;;;1.30;;
12567;SDS011;6349;50.904;6.136;2023-03-23T10:48:58;1.90;;;1.20;;
12567;SDS011;6349;50.904;6.136;2023-03-23T10:51:03;1.50;;;1.20;;
12567;SDS011;6349;50.904;6.136;2023-03-23T10:53:13;2.23;;;1.00;;
12567;SDS011;6349;50.904;6.136;2023-03-23T10:55:20;2.53;;;1.20;;
12567;SDS011;6349;50.904;6.136;2023-03-23T10:57:26;1.87;;;1.10;;
12567;SDS011;6349;50.904;6.136;2023-03-23T10:59:30;2.80;;;1.33;;
12567;SDS011;6349;50.904;6.136;2023-03-23T11:01:33;3.17;;;1.20;;
12567;SDS011;6349;50.904;6.136;2023-03-23T11:03:40;1.73;;;1.30;;
12567;SDS011;6349;50.904;6.136;2023-03-23T11:06:01;2.83;;;1.33;;
12567;SDS011;6349;50.904;6.136;2023-03-23T11:08:14;1.67;;;1.10;;
12567;SDS011;6349;50.904;6.136;2023-03-23T11:10:25;2.50;;;1.10;;
12567;SDS011;6349;50.904;6.136;2023-03-23T11:12:28;1.20;;;0.97;;
12567;SDS011;6349;50.904;6.136;2023-03-23T11:14:35;3.00;;;1.03;;
12567;SDS011;6349;50.904;6.136;2023-03-23T11:16:44;1.70;;;1.00;;
12567;SDS011;6349;50.904;6.136;2023-03-23T11:18:51;1.63;;;1.10;;
12567;SDS011;6349;50.904;6.136;2023-03-23T11:20:55;1.63;;;1.10;;
12567;SDS011;6349;50.904;6.136;2023-03-23T11:22:58;1.83;;;0.90;;
12567;SDS011;6349;50.904;6.136;2023-03-23T11:25:00;1.23;;;0.90;;
12567;SDS011;6349;50.904;6.136;2023-03-23T11:27:04;2.37;;;1.00;;
12567;SDS011;6349;50.904;6.136;2023-03-23T11:29:12;2.53;;;1.10;;
12567;SDS011;6349;50.904;6.136;2023-03-23T11:31:20;1.53;;;0.93;;
12567;SDS011;6349;50.904;6.136;2023-03-23T11:33:28;2.13;;;1.23;;
12567;SDS011;6349;50.904;6.136;2023-03-23T11:35:30;3.40;;;1.23;;
12567;SDS011;6349;50.904;6.136;2023-03-23T11:37:33;1.27;;;1.10;;
12567;SDS011;6349;50.904;6.136;2023-03-23T11:42:02;2.67;;;1.60;;
12567;SDS011;6349;50.904;6.136;2023-03-23T11:44:13;2.07;;;1.40;;
12567;SDS011;6349;50.904;6.136;2023-03-23T11:46:32;1.77;;;1.17;;
12567;SDS011;6349;50.904;6.136;2023-03-23T11:48:39;1.20;;;1.07;;
12567;SDS011;6349;50.904;6.136;2023-03-23T11:50:53;2.77;;;1.57;;
12567;SDS011;6349;50.904;6.136;2023-03-23T11:53:02;2.30;;;1.37;;
12567;SDS011;6349;50.904;6.136;2023-03-23T11:55:24;1.53;;;1.17;;
12567;SDS011;6349;50.904;6.136;2023-03-23T11:57:29;2.90;;;1.43;;
12567;SDS011;6349;50.904;6.136;2023-03-23T11:59:32;2.97;;;1.70;;
12567;SDS011;6349;50.904;6.136;2023-03-23T12:06:35;2.60;;;1.30;;
12567;SDS011;6349;50.904;6.136;2023-03-23T12:08:55;2.80;;;1.30;;
12567;SDS011;6349;50.904;6.136;2023-03-23T12:11:18;1.53;;;1.33;;
12567;SDS011;6349;50.904;6.136;2023-03-23T12:13:37;3.53;;;1.57;;
12567;SDS011;6349;50.904;6.136;2023-03-23T12:23:40;1.77;;;1.53;;
12567;SDS011;6349;50.904;6.136;2023-03-23T12:25:54;1.97;;;1.40;;
12567;SDS011;6349;50.904;6.136;2023-03-23T12:28:26;3.17;;;1.40;;
12567;SDS011;6349;50.904;6.136;2023-03-23T12:30:45;4.40;;;1.50;;
12567;SDS011;6349;50.904;6.136;2023-03-23T12:38:21;1.80;;;1.30;;
12567;SDS011;6349;50.904;6.136;2023-03-23T12:40:48;2.57;;;1.30;;
12567;SDS011;6349;50.904;6.136;2023-03-23T12:42:59;2.47;;;1.40;;
12567;SDS011;6349;50.904;6.136;2023-03-23T12:46:03;1.97;;;1.40;;
12567;SDS011;6349;50.904;6.136;2023-03-23T12:48:01;2.63;;;1.33;;
12567;SDS011;6349;50.904;6.136;2023-03-23T12:50:16;1.83;;;1.37;;
12567;SDS011;6349;50.904;6.136;2023-03-23T12:52:39;2.20;;;1.50;;
12567;SDS011;6349;50.904;6.136;2023-03-23T12:55:04;1.77;;;1.40;;
12567;SDS011;6349;50.904;6.136;2023-03-23T12:57:20;2.20;;;1.37;;
12567;SDS011;6349;50.904;6.136;2023-03-23T13:02:32;2.00;;;1.30;;
12567;SDS011;6349;50.904;6.136;2023-03-23T13:04:39;1.93;;;1.63;;
12567;SDS011;6349;50.904;6.136;2023-03-23T13:06:45;1.93;;;1.33;;
12567;SDS011;6349;50.904;6.136;2023-03-23T13:08:50;2.77;;;1.27;;
12567;SDS011;6349;50.904;6.136;2023-03-23T13:10:58;2.10;;;1.23;;
12567;SDS011;6349;50.904;6.136;2023-03-23T13:13:06;1.77;;;1.30;;
12567;SDS011;6349;50.904;6.136;2023-03-23T13:15:31;2.23;;;1.63;;
12567;SDS011;6349;50.904;6.136;2023-03-23T13:17:48;1.83;;;1.37;;
12567;SDS011;6349;50.904;6.136;2023-03-23T13:20:07;3.03;;;1.50;;
12567;SDS011;6349;50.904;6.136;2023-03-23T13:22:36;2.03;;;1.40;;
12567;SDS011;6349;50.904;6.136;2023-03-23T13:24:48;1.90;;;1.20;;
12567;SDS011;6349;50.904;6.136;2023-03-23T13:26:59;2.20;;;1.40;;
12567;SDS011;6349;50.904;6.136;2023-03-23T13:29:08;1.93;;;1.30;;
12567;SDS011;6349;50.904;6.136;2023-03-23T13:31:15;2.50;;;1.40;;